Time;durP1;ratioP1;P1;durP2;ratioP2;P2;SDS_P1;SDS_P2;PMS_P1;PMS_P2;Temp;Humidity;BMP_temperature;BMP_pressure;BME280_temperature;BME280_humidity;BME280_pressure;Samples;Min_cycle;Max_cycle;Signal;HPM_P1;HPM_P2
2022/05/15 00:04:25;;;;;;;5.40;2.10;;;15.30;95.20;;;;;;10297425;28;20401;-56
2022/05/15 00:09:27;;;;;;;6.50;2.17;;;15.20;96.20;;;;;;10287815;28;20058;-58
2022/05/15 00:14:29;;;;;;;4.72;2.35;;;15.00;96.20;;;;;;10299146;28;20066;-57
2022/05/15 00:19:31;;;;;;;2.65;2.00;;;14.90;97.90;;;;;;10295400;28;20112;-57
2022/05/15 00:24:34;;;;;;;4.07;2.20;;;14.80;98.70;;;;;;10301467;28;20440;-57
2022/05/15 00:29:37;;;;;;;6.00;2.20;;;14.70;98.50;;;;;;10298933;28;20400;-57
2022/05/15 00:34:38;;;;;;;4.28;1.70;;;14.50;99.60;;;;;;10302859;28;20062;-57
2022/05/15 00:39:40;;;;;;;8.13;2.60;;;14.50;99.90;;;;;;10295252;28;20110;-56
2022/05/15 00:44:42;;;;;;;2.15;1.88;;;14.30;99.90;;;;;;10290950;28;20497;-56
2022/05/15 00:49:44;;;;;;;6.95;2.17;;;14.20;99.90;;;;;;10289111;28;20457;-56
2022/05/15 00:54:51;;;;;;;6.35;2.60;;;14.20;99.90;;;;;;10294854;28;20046;-56
2022/05/15 01:00:03;;;;;;;5.40;2.30;;;14.00;99.90;;;;;;10285158;28;20100;-58
2022/05/15 01:05:06;;;;;;;5.90;2.75;;;13.90;99.90;;;;;;10301854;28;20049;-56
2022/05/15 01:10:09;;;;;;;3.90;2.90;;;13.80;99.90;;;;;;10293156;28;20042;-58
2022/05/15 01:15:16;;;;;;;4.97;2.42;;;13.80;99.90;;;;;;10298668;28;20057;-57
2022/05/15 01:20:21;;;;;;;4.15;2.60;;;13.70;99.90;;;;;;10297831;28;20494;-57
2022/05/15 01:25:27;;;;;;;4.68;2.33;;;13.50;99.90;;;;;;10290246;28;20050;-58
2022/05/15 01:30:29;;;;;;;9.48;3.47;;;13.50;99.90;;;;;;10300282;28;20413;-56
2022/05/15 01:35:31;;;;;;;11.05;3.25;;;13.40;99.90;;;;;;10294129;28;20050;-58
2022/05/15 01:40:39;;;;;;;;;;;13.30;99.90;;;;;;10296023;28;20081;-58
2022/05/15 01:45:41;;;;;;;6.93;2.40;;;13.30;99.90;;;;;;10297507;28;19929;-57
2022/05/15 01:50:43;;;;;;;5.57;3.17;;;13.30;99.90;;;;;;10300349;28;20054;-57
2022/05/15 01:55:44;;;;;;;6.32;3.10;;;13.30;99.90;;;;;;10299670;28;20057;-56
2022/05/15 02:00:46;;;;;;;7.80;3.70;;;13.30;99.90;;;;;;10299721;28;20058;-56
2022/05/15 02:05:48;;;;;;;6.35;3.83;;;13.10;99.90;;;;;;10301108;28;20116;-57
2022/05/15 02:10:50;;;;;;;4.28;3.42;;;13.10;99.90;;;;;;10291070;28;20440;-56
2022/05/15 02:15:51;;;;;;;12.52;4.55;;;12.90;99.90;;;;;;10296016;28;20117;-56
2022/05/15 02:20:54;;;;;;;9.90;4.03;;;12.90;99.90;;;;;;10291664;28;20054;-57
2022/05/15 02:25:55;;;;;;;5.28;3.78;;;12.80;99.90;;;;;;10297800;28;20087;-56
2022/05/15 02:30:57;;;;;;;8.32;4.53;;;12.80;99.90;;;;;;10300968;28;20057;-56
2022/05/15 02:36:06;;;;;;;7.75;3.63;;;12.70;99.90;;;;;;10295988;28;20138;-56
2022/05/15 02:41:07;;;;;;;5.78;3.83;;;12.70;99.90;;;;;;10299848;28;20069;-55
2022/05/15 02:46:09;;;;;;;5.35;3.38;;;12.60;99.90;;;;;;10302007;28;20055;-56
2022/05/15 02:51:12;;;;;;;6.93;4.10;;;12.60;99.90;;;;;;10293310;28;20046;-56
2022/05/15 02:56:19;;;;;;;7.18;4.32;;;12.50;99.90;;;;;;10281811;28;20050;-58
2022/05/15 03:01:21;;;;;;;4.50;3.88;;;12.40;99.90;;;;;;10293389;28;20054;-59
2022/05/15 03:06:23;;;;;;;12.82;4.68;;;12.30;99.90;;;;;;10293117;28;20085;-57
2022/05/15 03:11:25;;;;;;;7.45;4.68;;;12.20;99.90;;;;;;10305879;28;20514;-56
2022/05/15 03:16:29;;;;;;;8.45;4.18;;;12.10;99.90;;;;;;10304690;28;20051;-56
2022/05/15 03:21:31;;;;;;;9.00;4.65;;;12.00;99.90;;;;;;10292856;28;20082;-57
2022/05/15 03:26:36;;;;;;;6.97;3.85;;;12.00;99.90;;;;;;10290006;28;20124;-56
2022/05/15 03:31:39;;;;;;;9.45;4.80;;;12.00;99.90;;;;;;10303346;28;20043;-58
2022/05/15 03:36:42;;;;;;;8.15;4.38;;;11.90;99.90;;;;;;10298765;28;20054;-61
2022/05/15 03:41:44;;;;;;;10.85;4.65;;;11.80;99.90;;;;;;10299800;28;20050;-59
2022/05/15 03:46:46;;;;;;;11.07;4.90;;;11.90;99.90;;;;;;10290531;28;20124;-60
2022/05/15 03:51:48;;;;;;;13.38;5.03;;;11.90;99.90;;;;;;10301857;28;20105;-61
2022/05/15 03:56:50;;;;;;;12.90;5.13;;;11.90;99.90;;;;;;10297376;28;20042;-59
2022/05/15 04:01:52;;;;;;;11.10;4.72;;;11.80;99.90;;;;;;10300845;28;20058;-62
2022/05/15 04:06:54;;;;;;;7.97;5.10;;;11.80;99.90;;;;;;10293203;28;20054;-58
2022/05/15 04:11:55;;;;;;;8.38;4.38;;;11.80;99.90;;;;;;10276566;28;20080;-59
2022/05/15 04:16:57;;;;;;;7.22;4.57;;;11.80;99.90;;;;;;10297400;28;20054;-59
2022/05/15 04:22:02;;;;;;;5.80;3.88;;;11.80;99.90;;;;;;10253568;28;20051;-60
2022/05/15 04:27:04;;;;;;;7.82;4.50;;;11.80;99.90;;;;;;10255745;28;20054;-60
2022/05/15 04:32:06;;;;;;;8.90;4.40;;;11.80;99.90;;;;;;10256045;28;20054;-59
2022/05/15 04:37:09;;;;;;;8.90;4.72;;;11.80;99.90;;;;;;10251742;28;20359;-59
2022/05/15 04:42:11;;;;;;;7.85;3.90;;;11.90;99.90;;;;;;10252582;28;20043;-59
2022/05/15 04:47:13;;;;;;;4.95;3.60;;;11.90;99.90;;;;;;10251819;28;20051;-59
2022/05/15 04:52:15;;;;;;;8.73;4.13;;;12.00;99.90;;;;;;10255363;28;20086;-60
2022/05/15 04:57:17;;;;;;;7.47;3.35;;;12.10;99.90;;;;;;10251358;28;20109;-60
2022/05/15 05:02:21;;;;;;;8.35;3.95;;;12.20;99.90;;;;;;10251941;28;20657;-60
2022/05/15 05:07:22;;;;;;;9.00;3.67;;;12.30;99.90;;;;;;10248830;28;20051;-60
2022/05/15 05:12:24;;;;;;;9.57;4.22;;;12.40;99.90;;;;;;10260626;28;20051;-61
2022/05/15 05:17:26;;;;;;;8.00;3.80;;;12.60;99.90;;;;;;10250820;28;20126;-61
2022/05/15 05:22:28;;;;;;;8.50;3.60;;;12.70;99.90;;;;;;10289068;28;20141;-60
2022/05/15 05:27:30;;;;;;;7.35;3.60;;;12.80;99.90;;;;;;10294932;28;20050;-59
2022/05/15 05:32:31;;;;;;;6.65;3.30;;;13.00;99.90;;;;;;10295777;28;20058;-61
2022/05/15 05:37:33;;;;;;;8.45;3.88;;;13.10;99.90;;;;;;10283568;28;20413;-60
2022/05/15 05:42:35;;;;;;;9.13;3.30;;;13.30;99.90;;;;;;10293074;28;20054;-62
2022/05/15 05:47:37;;;;;;;5.70;3.17;;;13.50;99.90;;;;;;10293955;28;20138;-61
2022/05/15 05:52:40;;;;;;;11.02;4.03;;;13.70;99.90;;;;;;10291294;28;20117;-60
2022/05/15 05:57:43;;;;;;;8.05;2.88;;;13.90;99.90;;;;;;10291183;28;20047;-62
2022/05/15 06:02:45;;;;;;;7.80;2.70;;;14.20;99.90;;;;;;10291460;28;20047;-59
2022/05/15 06:07:46;;;;;;;6.22;2.47;;;14.40;99.90;;;;;;10293064;28;20077;-60
2022/05/15 06:12:48;;;;;;;5.72;2.47;;;14.60;99.90;;;;;;10292635;28;20529;-61
2022/05/15 06:17:50;;;;;;;3.03;2.70;;;14.70;99.90;;;;;;10292945;28;20108;-61
2022/05/15 06:22:51;;;;;;;4.30;2.40;;;14.90;99.90;;;;;;10290973;28;20063;-60
2022/05/15 06:27:53;;;;;;;5.22;1.98;;;15.10;99.90;;;;;;10277396;28;20058;-59
2022/05/15 06:32:55;;;;;;;5.88;2.00;;;15.40;99.90;;;;;;10291509;28;20054;-59
2022/05/15 06:38:01;;;;;;;7.82;1.95;;;15.60;99.90;;;;;;10296674;28;20641;-61
2022/05/15 06:43:03;;;;;;;4.88;1.48;;;15.80;99.90;;;;;;10281783;28;20057;-60
2022/05/15 06:48:05;;;;;;;5.80;2.15;;;16.00;99.90;;;;;;10296437;28;20050;-60
2022/05/15 06:53:12;;;;;;;3.13;1.83;;;16.10;99.90;;;;;;10290993;28;20078;-59
2022/05/15 06:58:13;;;;;;;;;;;16.40;99.90;;;;;;10288082;28;20042;-61
2022/05/15 07:03:15;;;;;;;5.18;1.65;;;16.60;99.90;;;;;;10301793;28;19930;-60
2022/05/15 07:08:17;;;;;;;4.05;1.42;;;16.80;97.70;;;;;;10300463;28;20054;-60
2022/05/15 07:13:19;;;;;;;7.78;1.13;;;16.90;97.40;;;;;;10294161;28;20053;-60
2022/05/15 07:18:23;;;;;;;4.78;1.20;;;17.20;96.50;;;;;;10297965;28;20046;-61
2022/05/15 07:23:26;;;;;;;6.05;1.42;;;17.40;94.60;;;;;;10292291;28;20049;-59
2022/05/15 07:28:32;;;;;;;6.13;1.30;;;17.60;94.40;;;;;;10297893;28;20046;-59
2022/05/15 07:33:34;;;;;;;6.60;1.00;;;17.90;93.20;;;;;;10294311;28;20050;-60
2022/05/15 07:38:35;;;;;;;4.97;1.48;;;18.00;91.50;;;;;;10294781;28;20054;-58
2022/05/15 07:43:37;;;;;;;5.72;1.50;;;18.20;91.30;;;;;;10297884;28;20109;-60
2022/05/15 07:48:39;;;;;;;2.42;0.90;;;18.50;90.00;;;;;;10322397;23;20046;-92
2022/05/15 07:53:41;;;;;;;6.55;0.90;;;18.60;88.50;;;;;;10339461;28;20056;-91
2022/05/15 07:58:43;;;;;;;3.45;0.93;;;18.90;88.50;;;;;;10337799;28;20050;-91
2022/05/15 08:03:46;;;;;;;7.18;0.82;;;19.10;85.60;;;;;;10338412;28;20068;-93
2022/05/15 08:08:48;;;;;;;8.25;0.95;;;19.30;83.20;;;;;;10344490;28;20092;-93
2022/05/15 08:13:50;;;;;;;4.82;0.88;;;19.40;81.80;;;;;;10333907;28;20042;-93
2022/05/15 08:24:14;;;;;;;4.15;0.70;;;19.50;79.60;;;;;;10353357;28;20030;-93
2022/05/15 08:29:17;;;;;;;5.50;0.88;;;19.80;79.80;;;;;;10353358;28;20054;-93
2022/05/15 08:34:19;;;;;;;3.03;0.77;;;19.80;79.30;;;;;;10339857;28;20046;-93
2022/05/15 08:39:21;;;;;;;3.15;0.93;;;20.00;79.60;;;;;;10339667;28;20054;-93
2022/05/15 08:44:32;;;;;;;3.33;0.80;;;20.20;79.10;;;;;;10336437;28;20050;-93
2022/05/15 08:49:44;;;;;;;5.68;1.02;;;20.20;79.30;;;;;;10348803;28;20072;-92
2022/05/15 08:55:06;;;;;;;6.80;1.02;;;20.40;78.50;;;;;;10351448;28;20065;-93
2022/05/15 09:00:11;;;;;;;3.63;1.10;;;20.50;79.50;;;;;;10289726;28;20035;-93
2022/05/15 09:05:16;;;;;;;3.20;1.20;;;20.70;77.20;;;;;;10346215;28;20080;-92
2022/05/15 09:10:32;;;;;;;5.53;1.05;;;20.90;78.40;;;;;;10359224;28;20050;-93
2022/05/15 09:15:43;;;;;;;7.47;0.85;;;21.10;77.30;;;;;;10331202;28;20038;-92
2022/05/15 09:20:57;;;;;;;5.93;0.80;;;21.40;78.70;;;;;;10345580;28;21134;-92
2022/05/15 09:26:22;;;;;;;9.65;1.17;;;21.50;76.80;;;;;;10346973;28;20459;-93
2022/05/15 09:31:34;;;;;;;4.75;0.80;;;21.50;76.90;;;;;;10331338;28;20061;-93
2022/05/15 09:36:36;;;;;;;7.95;0.90;;;21.60;75.50;;;;;;10349504;28;20073;-93
2022/05/15 09:47:16;;;;;;;6.53;0.82;;;22.30;76.20;;;;;;10346492;28;20030;-92
2022/05/15 09:52:36;;;;;;;5.20;0.70;;;22.30;73.10;;;;;;10338396;28;20050;-92
2022/05/15 09:57:51;;;;;;;3.85;0.60;;;22.60;73.40;;;;;;10345938;28;20065;-93
2022/05/15 10:02:54;;;;;;;4.35;1.13;;;22.70;73.00;;;;;;10335719;28;20056;-93
2022/05/15 10:08:22;;;;;;;4.15;0.90;;;22.90;73.60;;;;;;10329745;28;20104;-93
2022/05/15 10:13:54;;;;;;;4.28;0.73;;;23.00;71.90;;;;;;10253874;28;20054;-94
2022/05/15 10:19:32;;;;;;;5.50;0.88;;;23.10;72.70;;;;;;10288848;28;20050;-93
2022/05/15 10:24:44;;;;;;;4.78;0.75;;;23.30;71.80;;;;;;10131225;28;20072;-93
2022/05/15 10:30:38;;;;;;;1.50;0.73;;;23.50;70.50;;;;;;10198170;28;20181;-92
2022/05/15 10:35:59;;;;;;;2.15;0.70;;;23.80;66.90;;;;;;10167149;28;20055;-93
2022/05/15 10:46:55;;;;;;;5.47;0.80;;;24.20;66.00;;;;;;10275919;28;20053;-94
2022/05/15 10:52:43;;;;;;;4.95;0.65;;;24.60;63.40;;;;;;10287515;28;20150;-92
2022/05/15 10:58:10;;;;;;;3.15;0.50;;;24.90;60.40;;;;;;10243502;28;20050;-93
2022/05/15 11:04:02;;;;;;;3.00;0.60;;;25.30;62.20;;;;;;10314628;28;20040;-93
2022/05/15 11:09:11;;;;;;;4.22;0.90;;;25.70;58.10;;;;;;10284344;28;20120;-93
2022/05/15 11:14:51;;;;;;;3.13;0.70;;;25.60;57.90;;;;;;10266996;28;20054;-92
2022/05/15 11:19:58;;;;;;;3.88;0.40;;;26.00;59.40;;;;;;10275398;28;20043;-92
2022/05/15 11:25:15;;;;;;;2.90;0.50;;;26.40;56.50;;;;;;10225907;28;20046;-93
2022/05/15 11:30:29;;;;;;;1.05;0.40;;;26.30;53.40;;;;;;10208876;28;20047;-93
2022/05/15 11:35:59;;;;;;;3.63;0.40;;;26.40;51.70;;;;;;10313244;28;20133;-94
2022/05/15 11:41:29;;;;;;;0.70;0.25;;;26.90;51.90;;;;;;10306029;28;20062;-90
2022/05/15 11:46:46;;;;;;;2.67;0.43;;;27.30;49.90;;;;;;10300096;28;20057;-94
2022/05/15 11:52:04;;;;;;;13.68;2.35;;;27.30;49.40;;;;;;10286541;28;20034;-92
2022/05/15 11:57:15;;;;;;;2.60;0.50;;;27.40;48.70;;;;;;10269146;28;20033;-92
2022/05/15 12:02:20;;;;;;;5.03;0.38;;;27.60;46.90;;;;;;10276218;28;20034;-94
2022/05/15 12:07:52;;;;;;;0.85;0.28;;;27.30;47.30;;;;;;10294460;28;20033;-93
2022/05/15 12:13:04;;;;;;;1.42;0.30;;;27.60;47.50;;;;;;10306074;28;20694;-93
2022/05/15 12:18:26;;;;;;;1.02;0.40;;;27.70;42.30;;;;;;10315029;28;20055;-92
2022/05/15 12:23:35;;;;;;;5.35;0.40;;;27.70;44.20;;;;;;10295482;28;20081;-93
2022/05/15 12:29:19;;;;;;;3.22;0.50;;;27.80;45.00;;;;;;10278229;28;20058;-93
2022/05/15 12:34:34;;;;;;;4.50;0.52;;;28.20;44.40;;;;;;10251974;28;20043;-92
2022/05/15 12:39:41;;;;;;;2.83;0.40;;;28.20;46.00;;;;;;10291586;28;20484;-92
2022/05/15 12:44:44;;;;;;;4.35;0.60;;;28.50;43.90;;;;;;10297471;28;20042;-93
2022/05/15 12:49:58;;;;;;;1.17;0.30;;;28.50;43.10;;;;;;10273949;28;20046;-91
2022/05/15 12:55:20;;;;;;;2.13;0.30;;;28.20;43.70;;;;;;10283751;28;20053;-92
2022/05/15 13:05:51;;;;;;;3.33;0.85;;;28.80;45.10;;;;;;10295022;28;20065;-60
2022/05/15 13:11:02;;;;;;;2.78;0.40;;;28.60;45.50;;;;;;10300206;28;20065;-61
2022/05/15 13:16:07;;;;;;;2.45;0.40;;;28.20;44.60;;;;;;10302211;28;20412;-60
2022/05/15 13:21:10;;;;;;;1.75;0.35;;;28.10;45.10;;;;;;10284829;28;20051;-60
2022/05/15 13:26:17;;;;;;;2.97;0.40;;;28.20;44.30;;;;;;10303670;28;20050;-61
2022/05/15 13:31:19;;;;;;;1.98;0.40;;;28.30;45.30;;;;;;10304566;28;20052;-60
2022/05/15 13:36:22;;;;;;;1.10;0.45;;;28.70;44.90;;;;;;10304396;28;20389;-61
2022/05/15 13:47:09;;;;;;;3.33;0.45;;;28.60;44.00;;;;;;10310227;28;20093;-61
2022/05/15 13:52:29;;;;;;;5.97;0.40;;;28.70;45.20;;;;;;10309420;28;20038;-61
2022/05/15 13:57:31;;;;;;;6.80;0.60;;;28.80;44.30;;;;;;10311905;28;20448;-60
2022/05/15 14:02:58;;;;;;;3.13;0.65;;;28.30;44.60;;;;;;10312926;28;20501;-60
2022/05/15 14:08:15;;;;;;;1.95;0.47;;;28.30;45.30;;;;;;10311627;28;20050;-60
2022/05/15 14:13:17;;;;;;;1.67;0.50;;;28.10;46.00;;;;;;10294069;28;20645;-59
2022/05/15 14:18:34;;;;;;;3.40;0.50;;;28.10;46.10;;;;;;10312548;28;20046;-60
2022/05/15 14:23:37;;;;;;;1.88;0.50;;;27.80;44.10;;;;;;10308155;28;20137;-59
2022/05/15 14:28:39;;;;;;;4.60;0.45;;;27.80;46.10;;;;;;10311680;28;20520;-60
2022/05/15 14:33:45;;;;;;;1.92;0.57;;;27.90;47.50;;;;;;10311127;28;20054;-60
2022/05/15 14:38:47;;;;;;;2.30;0.40;;;28.00;44.70;;;;;;10310470;28;20054;-59
2022/05/15 14:43:48;;;;;;;2.28;0.25;;;28.30;45.20;;;;;;10292179;28;20047;-60
2022/05/15 14:48:51;;;;;;;2.08;0.30;;;29.00;43.10;;;;;;10308551;28;20400;-60
2022/05/15 14:53:56;;;;;;;4.53;0.40;;;29.30;43.10;;;;;;10310593;28;20050;-61
2022/05/15 14:59:07;;;;;;;4.20;0.40;;;29.20;42.80;;;;;;10292052;28;20104;-60
2022/05/15 15:04:10;;;;;;;1.40;0.98;;;29.00;41.90;;;;;;10311255;28;20529;-60
2022/05/15 15:09:12;;;;;;;2.50;0.40;;;28.80;42.50;;;;;;10306968;28;20050;-61
2022/05/15 15:14:15;;;;;;;1.50;0.40;;;28.60;43.60;;;;;;10311367;28;20042;-60
2022/05/15 15:19:19;;;;;;;4.57;0.40;;;28.40;43.70;;;;;;10291508;28;20058;-62
2022/05/15 15:24:23;;;;;;;1.77;0.50;;;28.20;43.90;;;;;;10293862;28;20046;-60
2022/05/15 15:29:24;;;;;;;3.38;0.35;;;28.10;43.80;;;;;;10308103;28;20497;-61
2022/05/15 15:34:26;;;;;;;5.78;0.40;;;28.10;44.60;;;;;;10291282;28;20532;-64
2022/05/15 15:39:28;;;;;;;0.98;0.50;;;28.30;45.00;;;;;;10308177;28;20077;-63
2022/05/15 15:44:29;;;;;;;4.13;0.40;;;28.50;44.20;;;;;;10292699;28;20050;-66
2022/05/15 15:49:31;;;;;;;1.33;0.30;;;28.70;44.50;;;;;;10294042;28;20054;-64
2022/05/15 15:54:33;;;;;;;3.08;0.40;;;29.00;45.40;;;;;;10311432;28;20051;-65
2022/05/15 15:59:34;;;;;;;1.75;0.30;;;29.30;42.60;;;;;;10309952;28;20058;-66
2022/05/15 16:04:36;;;;;;;4.15;0.40;;;29.30;43.10;;;;;;10309218;28;20108;-66
2022/05/15 16:09:38;;;;;;;4.75;0.40;;;29.40;42.90;;;;;;10309576;28;20277;-66
2022/05/15 16:14:40;;;;;;;3.70;0.52;;;29.60;42.40;;;;;;10308950;28;20444;-66
2022/05/15 16:19:41;;;;;;;0.77;0.40;;;29.80;42.80;;;;;;10304378;28;20444;-66
2022/05/15 16:24:46;;;;;;;2.50;0.40;;;29.90;42.90;;;;;;10305607;28;20129;-61
2022/05/15 16:29:53;;;;;;;4.10;0.30;;;30.10;41.90;;;;;;10309042;28;20101;-60
2022/05/15 16:34:55;;;;;;;0.93;0.30;;;30.00;41.10;;;;;;10309592;28;20125;-60
2022/05/15 16:39:58;;;;;;;2.28;0.40;;;30.00;40.80;;;;;;10306218;28;20053;-60
2022/05/15 16:45:12;;;;;;;1.75;0.25;;;30.30;41.10;;;;;;10307081;28;20053;-60
2022/05/15 16:50:17;;;;;;;2.30;0.30;;;30.50;40.40;;;;;;10303588;28;20050;-61
2022/05/15 16:55:22;;;;;;;3.67;0.30;;;30.50;41.10;;;;;;10302792;28;20047;-60
2022/05/15 17:00:24;;;;;;;1.52;0.28;;;30.50;39.80;;;;;;10303522;28;20117;-60
2022/05/15 17:05:26;;;;;;;2.22;0.50;;;30.50;40.60;;;;;;10306514;28;20058;-60
2022/05/15 17:10:29;;;;;;;4.00;0.50;;;30.60;41.40;;;;;;10303029;28;20046;-60
2022/05/15 17:15:33;;;;;;;2.60;0.30;;;30.30;41.00;;;;;;10305922;28;20051;-60
2022/05/15 17:20:36;;;;;;;3.13;0.30;;;30.10;40.80;;;;;;10305632;28;20046;-59
2022/05/15 17:25:38;;;;;;;2.10;0.40;;;29.90;41.70;;;;;;10305398;28;20134;-60
2022/05/15 17:36:01;;;;;;;3.65;0.40;;;29.10;42.50;;;;;;10303410;28;20097;-61
2022/05/15 17:41:03;;;;;;;4.13;0.40;;;29.00;42.80;;;;;;10306294;28;20053;-59
2022/05/15 17:46:05;;;;;;;1.25;0.38;;;28.80;43.30;;;;;;10305796;28;20042;-60
2022/05/15 17:51:07;;;;;;;3.30;0.40;;;28.80;43.80;;;;;;10305749;28;20046;-60
2022/05/15 17:56:10;;;;;;;4.65;0.45;;;28.50;43.30;;;;;;10305569;28;20042;-60
2022/05/15 18:01:12;;;;;;;3.45;0.80;;;28.10;43.50;;;;;;10302026;28;20453;-60
2022/05/15 18:06:14;;;;;;;2.03;0.40;;;27.70;44.50;;;;;;10287246;28;20049;-60
2022/05/15 18:11:16;;;;;;;2.78;0.50;;;27.30;45.10;;;;;;10305411;28;20047;-60
2022/05/15 18:16:18;;;;;;;4.47;0.50;;;27.00;45.70;;;;;;10305100;28;20137;-61
2022/05/15 18:21:22;;;;;;;2.95;0.50;;;26.50;46.70;;;;;;10286543;28;20050;-62
2022/05/15 18:26:24;;;;;;;0.90;0.40;;;26.10;47.30;;;;;;10305565;28;20101;-60
2022/05/15 18:31:26;;;;;;;2.50;0.70;;;25.50;48.40;;;;;;10307705;28;20062;-62
2022/05/15 18:36:28;;;;;;;2.40;0.70;;;25.20;49.90;;;;;;10312980;28;20042;-62
2022/05/15 18:41:40;;;;;;;3.65;0.40;;;24.80;50.80;;;;;;10308479;28;20050;-62
2022/05/15 18:46:42;;;;;;;2.60;0.45;;;24.60;51.00;;;;;;10292706;28;20062;-60
2022/05/15 18:57:05;;;;;;;3.88;0.60;;;24.00;52.50;;;;;;10305527;28;21195;-62
2022/05/15 19:02:07;;;;;;;2.88;0.52;;;23.70;53.10;;;;;;10310668;28;20511;-61
2022/05/15 19:07:08;;;;;;;2.25;0.50;;;23.50;54.00;;;;;;10310363;28;20731;-61
2022/05/15 19:12:10;;;;;;;1.30;0.50;;;23.20;54.70;;;;;;10311128;28;20054;-61
2022/05/15 19:17:13;;;;;;;3.13;0.43;;;22.90;56.00;;;;;;10311459;28;20062;-61
2022/05/15 19:22:14;;;;;;;5.20;0.52;;;22.60;57.20;;;;;;10310592;28;20051;-61
2022/05/15 19:27:16;;;;;;;5.75;1.92;;;22.30;58.30;;;;;;10310235;28;20054;-61
2022/05/15 19:32:18;;;;;;;11.90;3.72;;;22.00;59.30;;;;;;10309119;28;20062;-60
2022/05/15 19:37:21;;;;;;;7.15;2.40;;;21.60;60.00;;;;;;10292287;28;20504;-61
2022/05/15 19:42:23;;;;;;;7.55;1.20;;;21.20;61.70;;;;;;10309142;28;20051;-61
2022/05/15 19:47:30;;;;;;;4.35;0.63;;;21.00;62.90;;;;;;10308508;28;20444;-61
2022/05/15 19:52:32;;;;;;;2.13;0.57;;;20.70;64.60;;;;;;10306543;28;20054;-62
2022/05/15 19:57:37;;;;;;;5.22;1.20;;;20.50;65.50;;;;;;10290709;28;20475;-62
2022/05/15 20:02:39;;;;;;;6.35;1.20;;;20.30;68.90;;;;;;10309128;28;20054;-61
2022/05/15 20:13:22;;;;;;;4.85;1.30;;;19.90;70.40;;;;;;10306749;28;20070;-61
2022/05/15 20:18:23;;;;;;;4.68;1.05;;;19.70;71.70;;;;;;10309116;28;20120;-61
2022/05/15 20:23:26;;;;;;;8.38;0.80;;;19.50;72.60;;;;;;10308889;28;20050;-61
2022/05/15 20:28:27;;;;;;;1.65;0.68;;;19.30;72.90;;;;;;10307549;28;20492;-61
2022/05/15 20:33:29;;;;;;;2.17;0.60;;;19.10;73.80;;;;;;10305887;28;20065;-61
2022/05/15 20:38:31;;;;;;;1.70;0.60;;;18.90;74.90;;;;;;10307516;28;20134;-61
2022/05/15 20:43:38;;;;;;;1.75;0.75;;;18.80;75.60;;;;;;10307627;28;20065;-61
2022/05/15 20:48:42;;;;;;;5.03;0.70;;;18.70;76.00;;;;;;10306755;28;20054;-60
2022/05/15 20:53:43;;;;;;;4.05;0.82;;;18.60;77.60;;;;;;10304776;28;20388;-61
2022/05/15 20:58:47;;;;;;;3.45;0.70;;;18.50;78.50;;;;;;10308311;28;20046;-62
2022/05/15 21:03:49;;;;;;;10.85;1.33;;;18.30;79.90;;;;;;10307469;28;20504;-61
2022/05/15 21:08:51;;;;;;;2.97;0.98;;;18.20;81.50;;;;;;10305764;28;20054;-60
2022/05/15 21:13:53;;;;;;;2.00;0.70;;;18.00;82.90;;;;;;10288378;28;20448;-61
2022/05/15 21:18:57;;;;;;;4.25;1.45;;;18.00;84.10;;;;;;10305745;28;20042;-60
2022/05/15 21:23:58;;;;;;;3.90;1.10;;;17.80;85.00;;;;;;10305475;28;20058;-61
2022/05/15 21:29:00;;;;;;;3.50;0.82;;;17.80;86.40;;;;;;10307508;28;20046;-61
2022/05/15 21:34:02;;;;;;;4.18;0.98;;;17.60;87.30;;;;;;10305608;28;20050;-62
2022/05/15 21:44:24;;;;;;;2.95;0.70;;;17.50;89.10;;;;;;10306731;28;20049;-61
2022/05/15 21:49:26;;;;;;;1.20;0.90;;;17.40;90.20;;;;;;10307544;28;20691;-60
2022/05/15 21:54:28;;;;;;;8.88;0.90;;;17.20;90.60;;;;;;10304598;28;20108;-57
2022/05/15 22:04:51;;;;;;;3.05;0.68;;;16.70;92.10;;;;;;10306796;28;20066;-58
2022/05/15 22:09:53;;;;;;;2.80;0.70;;;16.70;92.60;;;;;;10295836;28;20050;-57
2022/05/15 22:14:56;;;;;;;3.42;0.77;;;16.60;93.60;;;;;;10311785;28;20112;-58
2022/05/15 22:20:00;;;;;;;7.05;0.88;;;16.50;94.30;;;;;;10314655;28;20053;-56
2022/05/15 22:25:03;;;;;;;1.17;0.70;;;16.40;94.90;;;;;;10311418;28;20559;-57
2022/05/15 22:30:07;;;;;;;5.13;0.70;;;16.30;94.60;;;;;;10312869;28;20559;-57
2022/05/15 22:35:09;;;;;;;2.05;1.25;;;16.30;94.70;;;;;;10311747;28;20046;-57
2022/05/15 22:40:11;;;;;;;3.80;0.90;;;16.20;96.00;;;;;;10312797;28;20050;-58
2022/05/15 22:45:14;;;;;;;1.88;0.80;;;16.20;96.00;;;;;;10312719;28;20081;-56
2022/05/15 22:50:19;;;;;;;8.02;1.10;;;16.10;96.80;;;;;;10312649;28;20070;-57
2022/05/15 22:55:21;;;;;;;3.45;1.25;;;16.00;97.10;;;;;;10308445;28;20050;-56
2022/05/15 23:00:23;;;;;;;2.50;0.80;;;15.90;98.30;;;;;;10312694;28;20041;-57
2022/05/15 23:10:45;;;;;;;5.30;1.00;;;15.70;99.60;;;;;;10310351;28;20065;-56
2022/05/15 23:15:47;;;;;;;6.30;1.05;;;15.60;99.90;;;;;;10308945;28;20113;-57
2022/05/15 23:20:49;;;;;;;3.95;1.13;;;15.50;99.90;;;;;;10302189;28;20050;-58
2022/05/15 23:25:51;;;;;;;4.75;1.08;;;15.30;99.90;;;;;;10311413;28;20054;-57
2022/05/15 23:30:53;;;;;;;2.10;0.90;;;15.20;99.90;;;;;;10306512;28;20073;-57
2022/05/15 23:35:55;;;;;;;2.00;1.00;;;15.10;99.90;;;;;;10309617;28;20113;-57
2022/05/15 23:40:56;;;;;;;3.22;0.85;;;15.10;99.90;;;;;;10309363;28;20132;-57
2022/05/15 23:45:59;;;;;;;2.17;1.00;;;15.00;99.90;;;;;;10292736;28;20049;-57
2022/05/15 23:51:02;;;;;;;2.17;0.80;;;14.90;99.90;;;;;;10308099;28;20050;-57
2022/05/15 23:56:04;;;;;;;4.35;1.20;;;14.90;99.90;;;;;;10309827;28;20038;-57
